New Bedford, Pennsylvania
Current Conditions -  °F | °C
As of 8:51 PM on Friday 19 Dec 2014 (Local Time) from KYNG Reporting Station
Overcast Overcast  
Wind Chill: 21°   Ceiling: 2300
Heat Index: 28°   Visibility: 10mi
Dew Point: 21°   Wind: 7mph
Humidity: 75%   Direction: 330°NNW
Pressure: 30.28"   Gusts: NA
Location:  41.1°N, 80.5°W
Report Text: KYNG 200151Z 33006KT 10SM OVC023 M02/M06 A3028 RMK AO2 SLP269 T10221061
Loading
Personal Weather Stations






























Interactive Weather Map New forecast layout! Learn more

10-Day Weather Forecast

Advertisements
Track Severe Weather on mobile